createdAt,value
2022-11-13T00:00:02.701Z,0
2022-11-13T00:01:03.346Z,0
2022-11-13T00:02:03.939Z,0
2022-11-13T00:03:04.534Z,0
2022-11-13T00:04:05.131Z,0
2022-11-13T00:05:05.725Z,0
2022-11-13T00:06:06.323Z,0
2022-11-13T00:07:06.937Z,0
2022-11-13T00:08:07.523Z,0
2022-11-13T00:09:08.114Z,0
2022-11-13T00:10:08.709Z,0
2022-11-13T00:11:09.353Z,0
2022-11-13T00:12:09.949Z,0
2022-11-13T00:13:10.847Z,0
2022-11-13T00:14:11.441Z,0
2022-11-13T00:15:12.086Z,0
2022-11-13T00:16:12.683Z,0
2022-11-13T00:17:13.278Z,0
2022-11-13T00:18:13.874Z,0
2022-11-13T00:19:14.469Z,0
2022-11-13T00:20:15.153Z,0
2022-11-13T00:21:16.568Z,0
2022-11-13T00:22:17.165Z,0
2022-11-13T00:23:17.759Z,0
2022-11-13T00:24:18.356Z,0
2022-11-13T00:25:18.952Z,0
2022-11-13T00:26:19.548Z,0
2022-11-13T00:27:20.141Z,0
2022-11-13T00:28:20.739Z,0
2022-11-13T00:29:21.335Z,0
2022-11-13T00:31:23.153Z,0
2022-11-13T00:32:24.597Z,0
2022-11-13T00:33:45.456Z,0
2022-11-13T00:34:46.403Z,0
2022-11-13T00:35:28.420Z,0
2022-11-13T00:36:28.998Z,0
2022-11-13T00:37:29.590Z,0
2022-11-13T00:38:30.466Z,0
2022-11-13T00:39:31.205Z,0
2022-11-13T00:40:31.801Z,0
2022-11-13T00:41:32.393Z,0
2022-11-13T00:42:32.987Z,0
2022-11-13T00:43:33.585Z,0
2022-11-13T00:44:34.182Z,0
2022-11-13T00:45:34.778Z,0
2022-11-13T00:46:35.377Z,0
2022-11-13T00:47:35.970Z,0
2022-11-13T00:48:36.564Z,0
2022-11-13T00:49:37.160Z,0
2022-11-13T00:50:37.842Z,0
2022-11-13T00:51:38.408Z,0
2022-11-13T00:52:39.058Z,0
2022-11-13T00:53:39.651Z,0
2022-11-13T00:54:40.245Z,0
2022-11-13T00:55:40.841Z,0
2022-11-13T00:56:41.435Z,0
2022-11-13T00:57:42.032Z,0
2022-11-13T00:58:42.629Z,0
2022-11-13T00:59:43.225Z,0
2022-11-13T01:00:43.818Z,0
2022-11-13T01:01:45.275Z,0
2022-11-13T01:02:45.899Z,0
2022-11-13T01:03:46.495Z,0
2022-11-13T01:04:47.090Z,0
2022-11-13T01:05:47.836Z,0
2022-11-13T01:06:48.427Z,0
2022-11-13T01:07:49.014Z,0
2022-11-13T01:08:49.608Z,0
2022-11-13T01:09:50.201Z,0
2022-11-13T01:10:53.765Z,0
2022-11-13T01:11:52.385Z,0
2022-11-13T01:12:52.982Z,0
2022-11-13T01:13:53.576Z,0
2022-11-13T01:14:54.171Z,0
2022-11-13T01:15:54.768Z,0
2022-11-13T01:16:55.362Z,0
2022-11-13T01:17:55.956Z,0
2022-11-13T01:18:56.555Z,0
2022-11-13T01:19:57.207Z,0
2022-11-13T01:20:57.896Z,0
2022-11-13T01:21:58.456Z,0
2022-11-13T01:22:59.049Z,0
2022-11-13T01:23:59.643Z,0
2022-11-13T01:25:00.236Z,0
2022-11-13T01:26:00.834Z,0
2022-11-13T01:27:01.429Z,0
2022-11-13T01:28:02.025Z,0
2022-11-13T01:29:02.620Z,0
2022-11-13T01:30:03.279Z,0
2022-11-13T01:31:03.874Z,0
2022-11-13T01:32:04.470Z,0
2022-11-13T01:33:05.064Z,0
2022-11-13T01:34:05.660Z,0
2022-11-13T01:35:06.406Z,0
2022-11-13T01:36:07.080Z,0
2022-11-13T01:37:07.704Z,0
2022-11-13T01:38:08.300Z,0
2022-11-13T01:39:08.892Z,0
2022-11-13T01:40:09.540Z,0
2022-11-13T01:41:10.132Z,0
2022-11-13T01:42:10.736Z,0
2022-11-13T01:43:11.375Z,0
2022-11-13T01:44:12.031Z,0
2022-11-13T01:45:12.619Z,0
2022-11-13T01:46:13.210Z,0
2022-11-13T01:47:13.807Z,0
2022-11-13T01:48:14.402Z,0
2022-11-13T01:49:14.996Z,0
2022-11-13T01:50:15.591Z,0
2022-11-13T01:51:16.267Z,0
2022-11-13T01:52:16.839Z,0
2022-11-13T01:53:17.433Z,0
2022-11-13T01:54:18.029Z,0
2022-11-13T01:55:18.627Z,0
2022-11-13T01:56:19.272Z,0
2022-11-13T01:57:19.872Z,0
2022-11-13T01:58:20.461Z,0
2022-11-13T01:59:21.055Z,0
2022-11-13T02:00:21.650Z,0
2022-11-13T02:01:22.314Z,0
2022-11-13T02:02:22.906Z,0
2022-11-13T02:03:23.501Z,0
2022-11-13T02:04:24.099Z,0
2022-11-13T02:05:24.757Z,0
2022-11-13T02:06:25.434Z,0
2022-11-13T02:07:26.003Z,0
2022-11-13T02:08:26.849Z,0
2022-11-13T02:09:27.613Z,0
2022-11-13T02:10:28.208Z,0
2022-11-13T02:11:28.807Z,0
2022-11-13T02:12:29.463Z,0
2022-11-13T02:13:30.060Z,0
2022-11-13T02:14:30.656Z,0
2022-11-13T02:15:31.250Z,0
2022-11-13T02:16:31.843Z,0
2022-11-13T02:17:32.437Z,0
2022-11-13T02:18:33.030Z,0
2022-11-13T02:19:33.629Z,0
2022-11-13T02:20:34.225Z,0
2022-11-13T02:21:34.902Z,0
2022-11-13T02:22:35.476Z,0
2022-11-13T02:23:36.074Z,0
2022-11-13T02:24:37.846Z,0
2022-11-13T02:25:38.257Z,0
2022-11-13T02:26:38.852Z,0
2022-11-13T02:27:39.446Z,0
2022-11-13T02:28:40.042Z,0
2022-11-13T02:29:40.636Z,0
2022-11-13T02:30:41.231Z,0
2022-11-13T02:31:41.829Z,0
2022-11-13T02:32:42.425Z,0
2022-11-13T02:33:43.020Z,0
2022-11-13T02:34:43.613Z,0
2022-11-13T02:35:44.209Z,0
2022-11-13T02:36:44.881Z,0
2022-11-13T02:37:45.456Z,0
2022-11-13T02:38:46.203Z,0
2022-11-13T02:39:46.792Z,0
2022-11-13T02:40:47.386Z,0
2022-11-13T02:41:47.980Z,0
2022-11-13T02:42:48.577Z,0
2022-11-13T02:43:49.173Z,0
2022-11-13T02:44:49.821Z,0
2022-11-13T02:45:50.414Z,0
2022-11-13T02:46:51.006Z,0
2022-11-13T02:47:51.601Z,0
2022-11-13T02:48:52.244Z,0
2022-11-13T02:49:52.840Z,0
2022-11-13T02:50:54.284Z,0
2022-11-13T02:51:55.011Z,0
2022-11-13T02:52:55.916Z,0
2022-11-13T02:53:56.583Z,0
2022-11-13T02:54:57.171Z,0
2022-11-13T02:55:57.767Z,0
2022-11-13T02:56:58.365Z,0
2022-11-13T02:57:58.959Z,0
2022-11-13T02:58:59.556Z,0
2022-11-13T03:00:00.180Z,0
2022-11-13T03:01:00.771Z,0
2022-11-13T03:02:01.440Z,0
2022-11-13T03:03:02.062Z,0
2022-11-13T03:04:02.661Z,0
2022-11-13T03:05:12.499Z,0
2022-11-13T03:06:04.837Z,0
2022-11-13T03:07:05.570Z,0
2022-11-13T03:08:06.933Z,0
2022-11-13T03:09:07.528Z,0
2022-11-13T03:10:08.123Z,0
2022-11-13T03:11:08.717Z,0
2022-11-13T03:12:09.312Z,0
2022-11-13T03:13:09.906Z,0
2022-11-13T03:14:10.501Z,0
2022-11-13T03:15:11.252Z,0
2022-11-13T03:16:11.848Z,0
2022-11-13T03:17:12.443Z,0
2022-11-13T03:18:13.038Z,0
2022-11-13T03:19:13.632Z,0
2022-11-13T03:20:14.252Z,0
2022-11-13T03:21:14.881Z,0
2022-11-13T03:22:15.475Z,0
2022-11-13T03:23:16.070Z,0
2022-11-13T03:24:16.667Z,0
2022-11-13T03:25:17.263Z,0
2022-11-13T03:26:17.860Z,0
2022-11-13T03:27:18.453Z,0
2022-11-13T03:28:19.047Z,0
2022-11-13T03:29:19.642Z,0
2022-11-13T03:30:20.239Z,0
2022-11-13T03:31:20.835Z,0
2022-11-13T03:32:21.431Z,0
2022-11-13T03:33:22.027Z,0
2022-11-13T03:34:22.622Z,0
2022-11-13T03:35:23.249Z,0
2022-11-13T03:36:23.851Z,0
2022-11-13T03:37:24.591Z,0
2022-11-13T03:38:25.240Z,0
2022-11-13T03:39:26.005Z,0
2022-11-13T03:40:26.600Z,0
2022-11-13T03:41:27.196Z,0
2022-11-13T03:42:27.792Z,0
2022-11-13T03:43:28.386Z,0
2022-11-13T03:44:28.981Z,0
2022-11-13T03:45:29.576Z,0
2022-11-13T03:46:30.170Z,0
2022-11-13T03:47:30.765Z,0
2022-11-13T03:48:31.709Z,0
2022-11-13T03:49:32.488Z,0
2022-11-13T03:50:33.085Z,0
2022-11-13T03:51:33.730Z,0
2022-11-13T03:52:34.588Z,0
2022-11-13T03:53:35.207Z,0
2022-11-13T03:54:35.850Z,0
2022-11-13T03:55:36.443Z,0
2022-11-13T03:56:37.038Z,0
2022-11-13T03:57:37.634Z,0
2022-11-13T03:58:40.280Z,0
2022-11-13T03:59:39.821Z,0
2022-11-13T04:00:40.418Z,0
2022-11-13T04:01:41.025Z,0
2022-11-13T04:02:41.609Z,0
2022-11-13T04:03:42.200Z,0
2022-11-13T04:04:42.797Z,0
2022-11-13T04:05:43.392Z,0
2022-11-13T04:06:44.006Z,0
2022-11-13T04:07:44.680Z,0
2022-11-13T04:08:45.246Z,0
2022-11-13T04:09:45.834Z,0
2022-11-13T04:10:46.430Z,0
2022-11-13T04:11:47.025Z,0
2022-11-13T04:12:47.621Z,0
2022-11-13T04:13:48.221Z,0
2022-11-13T04:14:49.662Z,0
2022-11-13T04:15:50.257Z,0
2022-11-13T04:16:50.855Z,0
2022-11-13T04:17:51.450Z,0
2022-11-13T04:18:52.107Z,0
2022-11-13T04:19:52.704Z,0
2022-11-13T04:20:53.299Z,0
2022-11-13T04:21:53.892Z,0
2022-11-13T04:22:54.568Z,0
2022-11-13T04:23:55.141Z,0
2022-11-13T04:24:55.737Z,0
2022-11-13T04:25:56.332Z,0
2022-11-13T04:26:56.926Z,0
2022-11-13T04:27:57.522Z,0
2022-11-13T04:28:58.121Z,0
2022-11-13T04:29:58.716Z,0
2022-11-13T04:30:59.311Z,0
2022-11-13T04:31:59.911Z,0
2022-11-13T04:33:00.502Z,0
2022-11-13T04:34:01.095Z,0
2022-11-13T04:35:01.693Z,0
2022-11-13T04:36:02.288Z,0
2022-11-13T04:37:02.883Z,0
2022-11-13T04:38:03.563Z,0
2022-11-13T04:39:04.398Z,0
2022-11-13T04:40:04.993Z,0
2022-11-13T04:41:05.589Z,0
2022-11-13T04:42:06.183Z,0
2022-11-13T04:43:06.778Z,0
2022-11-13T04:44:07.372Z,0
2022-11-13T04:45:07.969Z,0
2022-11-13T04:46:08.564Z,0
2022-11-13T04:47:09.163Z,0
2022-11-13T04:48:09.756Z,0
2022-11-13T04:49:10.350Z,0
2022-11-13T04:50:10.945Z,0
2022-11-13T04:51:11.542Z,0
2022-11-13T04:52:12.186Z,0
2022-11-13T04:53:12.864Z,0
2022-11-13T04:54:13.485Z,0
2022-11-13T04:55:14.085Z,0
2022-11-13T04:56:14.674Z,0
2022-11-13T04:57:15.272Z,0
2022-11-13T04:58:15.868Z,0
2022-11-13T04:59:16.612Z,0
2022-11-13T05:00:17.208Z,0
2022-11-13T05:01:17.855Z,0
2022-11-13T05:02:18.467Z,0
2022-11-13T05:03:19.126Z,0
2022-11-13T05:04:19.744Z,0
2022-11-13T05:05:20.389Z,0
2022-11-13T05:06:20.983Z,0
2022-11-13T05:07:21.618Z,0
2022-11-13T05:08:22.303Z,0
2022-11-13T05:09:22.877Z,0
2022-11-13T05:10:23.523Z,0
2022-11-13T05:11:24.118Z,0
2022-11-13T05:12:24.715Z,0
2022-11-13T05:13:25.310Z,0
2022-11-13T05:14:25.907Z,0
2022-11-13T05:15:26.508Z,0
2022-11-13T05:16:27.096Z,0
2022-11-13T05:17:27.693Z,0
2022-11-13T05:18:28.556Z,0
2022-11-13T05:19:29.280Z,0
2022-11-13T05:20:29.872Z,0
2022-11-13T05:21:30.467Z,0
2022-11-13T05:22:31.060Z,0
2022-11-13T05:23:31.737Z,0
2022-11-13T05:24:33.158Z,0
2022-11-13T05:25:33.754Z,0
2022-11-13T05:26:34.348Z,0
2022-11-13T05:27:35.744Z,0
2022-11-13T05:28:36.340Z,0
2022-11-13T05:29:36.948Z,0
2022-11-13T05:30:37.524Z,0
2022-11-13T05:31:38.121Z,0
2022-11-13T05:32:38.717Z,0
2022-11-13T05:33:39.315Z,0
2022-11-13T05:34:39.915Z,0
2022-11-13T05:35:40.503Z,0
2022-11-13T05:36:41.161Z,0
2022-11-13T05:37:42.556Z,0
2022-11-13T05:38:43.230Z,0
2022-11-13T05:39:43.802Z,0
2022-11-13T05:40:44.397Z,0
2022-11-13T05:41:44.992Z,0
2022-11-13T05:42:45.586Z,0
2022-11-13T05:43:46.184Z,0
2022-11-13T05:44:46.777Z,0
2022-11-13T05:45:47.373Z,0
2022-11-13T05:46:47.966Z,0
2022-11-13T05:47:48.560Z,0
2022-11-13T05:48:49.156Z,0
2022-11-13T05:49:49.751Z,0
2022-11-13T05:50:50.345Z,0
2022-11-13T05:51:50.939Z,0
2022-11-13T05:52:51.531Z,0
2022-11-13T05:53:53.007Z,0
2022-11-13T05:54:53.579Z,0
2022-11-13T05:55:54.176Z,0
2022-11-13T05:56:54.784Z,0
2022-11-13T05:57:55.366Z,0
2022-11-13T05:58:55.960Z,0
2022-11-13T05:59:56.555Z,0
2022-11-13T06:00:57.156Z,0
2022-11-13T06:01:57.937Z,0
2022-11-13T06:02:58.565Z,0
2022-11-13T06:03:59.262Z,0
2022-11-13T06:04:59.857Z,0
2022-11-13T06:06:00.452Z,0
2022-11-13T06:07:01.191Z,0
2022-11-13T06:08:01.835Z,0
2022-11-13T06:09:02.518Z,0
2022-11-13T06:10:03.247Z,0
2022-11-13T06:11:03.828Z,0
2022-11-13T06:12:04.426Z,0
2022-11-13T06:13:05.018Z,0
2022-11-13T06:14:05.615Z,0
2022-11-13T06:15:06.212Z,0
2022-11-13T06:16:06.812Z,0
2022-11-13T06:17:07.399Z,0
2022-11-13T06:18:07.995Z,0
2022-11-13T06:19:08.639Z,0
2022-11-13T06:20:09.234Z,0
2022-11-13T06:21:09.830Z,0
2022-11-13T06:22:10.424Z,0
2022-11-13T06:23:11.019Z,0
2022-11-13T06:24:11.791Z,0
2022-11-13T06:25:12.361Z,0
2022-11-13T06:26:13.006Z,0
2022-11-13T06:27:13.604Z,0
2022-11-13T06:28:14.199Z,0
2022-11-13T06:29:14.794Z,0
2022-11-13T06:31:16.387Z,0
2022-11-13T06:32:17.033Z,0
2022-11-13T06:33:18.477Z,0
2022-11-13T06:34:19.070Z,0
2022-11-13T06:35:19.717Z,0
2022-11-13T06:36:20.310Z,0
2022-11-13T06:37:20.919Z,0
2022-11-13T06:38:21.501Z,0
2022-11-13T06:39:22.250Z,0
2022-11-13T06:40:22.748Z,0
2022-11-13T06:41:23.736Z,0
2022-11-13T06:42:24.293Z,0
2022-11-13T06:43:24.888Z,0
2022-11-13T06:44:25.481Z,0
2022-11-13T06:45:26.077Z,0
2022-11-13T06:46:26.671Z,0
2022-11-13T06:47:27.264Z,0
2022-11-13T06:48:28.110Z,0
2022-11-13T06:49:28.916Z,0
2022-11-13T06:50:29.514Z,0
2022-11-13T06:51:30.104Z,0
2022-11-13T06:52:30.699Z,0
2022-11-13T06:53:31.293Z,0
2022-11-13T06:54:31.973Z,0
2022-11-13T06:55:32.543Z,0
2022-11-13T06:56:33.139Z,0
2022-11-13T06:57:33.882Z,0
2022-11-13T06:58:34.478Z,0
2022-11-13T06:59:35.072Z,0
2022-11-13T07:00:38.178Z,0
2022-11-13T07:01:37.273Z,0
2022-11-13T07:02:37.871Z,0
2022-11-13T07:03:38.465Z,0
2022-11-13T07:04:39.062Z,0
2022-11-13T07:05:39.657Z,0
2022-11-13T07:06:40.702Z,0
2022-11-13T07:07:41.336Z,0
2022-11-13T07:08:41.920Z,0
2022-11-13T07:09:42.597Z,0
2022-11-13T07:10:43.168Z,0
2022-11-13T07:11:43.762Z,0
2022-11-13T07:12:44.360Z,0
2022-11-13T07:13:45.005Z,0
2022-11-13T07:14:45.599Z,0
2022-11-13T07:15:46.195Z,0
2022-11-13T07:17:07.987Z,0
2022-11-13T07:17:48.383Z,0
2022-11-13T07:18:48.977Z,0
2022-11-13T07:19:49.572Z,0
2022-11-13T07:20:50.165Z,0
2022-11-13T07:21:50.761Z,0
2022-11-13T07:22:51.357Z,0
2022-11-13T07:23:51.949Z,0
2022-11-13T07:24:52.546Z,0
2022-11-13T07:25:53.142Z,0
2022-11-13T07:26:53.739Z,0
2022-11-13T07:27:54.331Z,0
2022-11-13T07:28:54.928Z,0
2022-11-13T07:29:59.491Z,0
2022-11-13T07:30:57.116Z,0
2022-11-13T07:31:57.710Z,0
2022-11-13T07:32:58.302Z,0
2022-11-13T07:33:58.897Z,0
2022-11-13T07:35:00.344Z,0
2022-11-13T07:36:00.940Z,0
2022-11-13T07:37:01.584Z,0
2022-11-13T07:38:02.282Z,0
2022-11-13T07:39:02.875Z,0
2022-11-13T07:40:04.403Z,0
2022-11-13T07:41:04.972Z,0
2022-11-13T07:42:05.567Z,0
2022-11-13T07:43:06.163Z,0
2022-11-13T07:44:09.455Z,0
2022-11-13T07:45:08.352Z,0
2022-11-13T07:46:08.940Z,0
2022-11-13T07:47:09.538Z,0
2022-11-13T07:48:10.133Z,0
2022-11-13T07:49:10.728Z,0
2022-11-13T07:50:11.322Z,0
2022-11-13T07:51:11.918Z,0
2022-11-13T07:52:12.511Z,0
2022-11-13T07:53:13.108Z,0
2022-11-13T07:54:13.704Z,0
2022-11-13T07:55:14.382Z,0
2022-11-13T07:56:20.244Z,0
2022-11-13T07:57:16.542Z,0
2022-11-13T07:58:17.135Z,0
2022-11-13T07:59:17.780Z,0
2022-11-13T08:00:18.379Z,0
2022-11-13T08:01:19.019Z,0
2022-11-13T08:02:25.090Z,0
2022-11-13T08:03:21.221Z,0
2022-11-13T08:04:21.816Z,0
2022-11-13T08:05:22.412Z,0
2022-11-13T08:06:23.011Z,0
2022-11-13T08:07:23.634Z,0
2022-11-13T08:08:24.225Z,0
2022-11-13T08:09:24.822Z,0
2022-11-13T08:10:25.493Z,0
2022-11-13T08:11:26.068Z,0
2022-11-13T08:12:26.664Z,0
2022-11-13T08:13:27.257Z,0
2022-11-13T08:14:27.851Z,0
2022-11-13T08:15:28.449Z,0
2022-11-13T08:16:29.040Z,0
2022-11-13T08:17:29.688Z,0
2022-11-13T08:18:30.612Z,0
2022-11-13T08:19:31.494Z,0
2022-11-13T08:20:32.086Z,0
2022-11-13T08:21:32.682Z,0
2022-11-13T08:22:33.284Z,0
2022-11-13T08:23:33.866Z,0
2022-11-13T08:24:34.459Z,0
2022-11-13T08:25:35.134Z,0
2022-11-13T08:26:35.706Z,0
2022-11-13T08:27:36.300Z,0
2022-11-13T08:28:36.902Z,0
2022-11-13T08:29:37.490Z,0
2022-11-13T08:30:38.085Z,0
2022-11-13T08:31:38.680Z,0
2022-11-13T08:32:39.274Z,0
2022-11-13T08:33:39.868Z,0
2022-11-13T08:34:40.462Z,0
2022-11-13T08:35:41.859Z,0
2022-11-13T08:36:42.450Z,0
2022-11-13T08:37:43.047Z,0
2022-11-13T08:38:43.640Z,0
2022-11-13T08:39:44.235Z,0
2022-11-13T08:40:44.931Z,0
2022-11-13T08:41:45.503Z,0
2022-11-13T08:42:46.098Z,0
2022-11-13T08:43:46.740Z,0
2022-11-13T08:44:47.383Z,8
2022-11-13T08:45:47.977Z,8
2022-11-13T08:46:48.574Z,8
2022-11-13T08:47:50.017Z,8
2022-11-13T08:48:50.611Z,12
2022-11-13T08:49:51.208Z,12
2022-11-13T08:50:51.802Z,12
2022-11-13T08:51:52.401Z,8
2022-11-13T08:52:52.998Z,12
2022-11-13T08:53:53.595Z,8
2022-11-13T08:54:54.191Z,8
2022-11-13T08:55:54.864Z,8
2022-11-13T08:56:57.247Z,12
2022-11-13T08:57:57.078Z,8
2022-11-13T08:58:57.673Z,8
2022-11-13T08:59:58.271Z,12
2022-11-13T09:00:58.868Z,12
2022-11-13T09:01:59.466Z,12
2022-11-13T09:03:00.062Z,12
2022-11-13T09:04:01.487Z,12
2022-11-13T09:05:02.094Z,8
2022-11-13T09:06:02.736Z,12
2022-11-13T09:07:03.382Z,8
2022-11-13T09:08:03.984Z,8
2022-11-13T09:09:04.579Z,8
2022-11-13T09:10:05.174Z,8
2022-11-13T09:11:05.853Z,8
2022-11-13T09:12:06.419Z,8
2022-11-13T09:13:07.013Z,8
2022-11-13T09:14:07.609Z,8
2022-11-13T09:15:08.203Z,12
2022-11-13T09:16:08.798Z,8
2022-11-13T09:17:09.416Z,12
2022-11-13T09:18:09.991Z,12
2022-11-13T09:19:10.587Z,12
2022-11-13T09:20:13.724Z,12
2022-11-13T09:21:12.771Z,16
2022-11-13T09:22:13.517Z,16
2022-11-13T09:23:14.116Z,12
2022-11-13T09:24:14.708Z,12
2022-11-13T09:25:15.304Z,16
2022-11-13T09:26:15.984Z,12
2022-11-13T09:27:16.554Z,16
2022-11-13T09:28:17.150Z,12
2022-11-13T09:29:17.746Z,16
2022-11-13T09:30:18.342Z,16
2022-11-13T09:31:18.945Z,16
2022-11-13T09:32:19.535Z,16
2022-11-13T09:33:20.132Z,16
2022-11-13T09:34:20.732Z,20
2022-11-13T09:35:21.326Z,20
2022-11-13T09:36:21.922Z,20
2022-11-13T09:37:22.519Z,20
2022-11-13T09:38:23.114Z,20
2022-11-13T09:39:23.775Z,20
2022-11-13T09:40:24.369Z,20
2022-11-13T09:41:25.052Z,24
2022-11-13T09:42:25.618Z,20
2022-11-13T09:43:26.212Z,20
2022-11-13T09:44:26.809Z,24
2022-11-13T09:45:27.405Z,24
2022-11-13T09:46:28.002Z,24
2022-11-13T09:47:28.599Z,24
2022-11-13T09:48:29.643Z,24
2022-11-13T09:49:30.435Z,24
2022-11-13T09:50:31.031Z,24
2022-11-13T09:51:31.677Z,24
2022-11-13T09:52:32.272Z,24
2022-11-13T09:53:32.916Z,24
2022-11-13T09:54:33.524Z,24
2022-11-13T09:55:34.108Z,28
2022-11-13T09:56:34.789Z,24
2022-11-13T09:57:35.360Z,24
2022-11-13T09:58:35.956Z,24
2022-11-13T09:59:36.549Z,24
2022-11-13T10:00:37.149Z,24
2022-11-13T10:01:37.845Z,28
2022-11-13T10:02:38.442Z,28
2022-11-13T10:04:00.581Z,28
2022-11-13T10:04:40.628Z,28
2022-11-13T10:05:41.223Z,28
2022-11-13T10:06:41.927Z,28
2022-11-13T10:07:42.525Z,32
2022-11-13T10:08:43.121Z,32
2022-11-13T10:09:43.717Z,32
2022-11-13T10:10:44.316Z,32
2022-11-13T10:11:44.997Z,28
2022-11-13T10:12:45.567Z,32
2022-11-13T10:13:46.164Z,32
2022-11-13T10:14:46.769Z,28
2022-11-13T10:15:47.359Z,32
2022-11-13T10:16:47.954Z,32
2022-11-13T10:17:48.548Z,32
2022-11-13T10:18:49.146Z,32
2022-11-13T10:19:49.740Z,36
2022-11-13T10:20:50.336Z,36
2022-11-13T10:21:54.872Z,36
2022-11-13T10:22:52.522Z,36
2022-11-13T10:23:53.119Z,36
2022-11-13T10:24:53.718Z,36
2022-11-13T10:25:54.314Z,36
2022-11-13T10:26:54.990Z,36
2022-11-13T10:27:55.619Z,36
2022-11-13T10:28:56.302Z,36
2022-11-13T10:29:56.923Z,36
2022-11-13T10:30:57.519Z,32
2022-11-13T10:31:58.118Z,32
2022-11-13T10:32:58.711Z,28
2022-11-13T10:33:59.307Z,28
2022-11-13T10:34:59.904Z,28
2022-11-13T10:36:00.503Z,28
2022-11-13T10:37:01.098Z,24
2022-11-13T10:38:06.578Z,20
2022-11-13T10:39:03.285Z,24
2022-11-13T10:40:03.927Z,20
2022-11-13T10:41:04.523Z,20
2022-11-13T10:42:05.203Z,20
2022-11-13T10:43:05.772Z,16
2022-11-13T10:44:06.369Z,20
2022-11-13T10:45:11.159Z,16
2022-11-13T10:46:08.554Z,20
2022-11-13T10:47:09.150Z,24
2022-11-13T10:48:09.749Z,24
2022-11-13T10:49:10.341Z,24
2022-11-13T10:50:10.941Z,24
2022-11-13T10:51:11.689Z,24
2022-11-13T10:52:12.286Z,24
2022-11-13T10:53:12.880Z,24
2022-11-13T10:54:13.478Z,20
2022-11-13T10:55:14.127Z,24
2022-11-13T10:56:14.722Z,20
2022-11-13T10:57:15.466Z,20
2022-11-13T10:58:16.036Z,20
2022-11-13T10:59:16.631Z,20
2022-11-13T11:00:17.279Z,20
2022-11-13T11:01:18.036Z,16
2022-11-13T11:02:18.620Z,20
2022-11-13T11:03:19.214Z,16
2022-11-13T11:04:19.811Z,16
2022-11-13T11:05:20.405Z,16
2022-11-13T11:06:21.001Z,20
2022-11-13T11:07:21.984Z,16
2022-11-13T11:08:22.685Z,12
2022-11-13T11:09:24.134Z,16
2022-11-13T11:10:24.830Z,16
2022-11-13T11:11:25.424Z,16
2022-11-13T11:12:30.920Z,16
2022-11-13T11:13:26.676Z,16
2022-11-13T11:14:27.274Z,12
2022-11-13T11:15:27.871Z,12
2022-11-13T11:16:28.466Z,16
2022-11-13T11:17:29.063Z,16
2022-11-13T11:18:29.951Z,16
2022-11-13T11:19:30.769Z,16
2022-11-13T11:20:31.365Z,16
2022-11-13T11:21:31.960Z,16
2022-11-13T11:22:32.558Z,16
2022-11-13T11:23:33.152Z,12
2022-11-13T11:24:33.751Z,16
2022-11-13T11:25:34.346Z,16
2022-11-13T11:26:34.956Z,16
2022-11-13T11:27:35.627Z,16
2022-11-13T11:28:36.205Z,16
2022-11-13T11:29:36.792Z,12
2022-11-13T11:30:37.386Z,12
2022-11-13T11:31:37.983Z,12
2022-11-13T11:32:38.581Z,16
2022-11-13T11:33:39.178Z,16
2022-11-13T11:34:39.771Z,12
2022-11-13T11:35:40.367Z,16
2022-11-13T11:36:40.966Z,12
2022-11-13T11:37:41.565Z,16
2022-11-13T11:38:42.157Z,16
2022-11-13T11:39:42.760Z,16
2022-11-13T11:40:43.351Z,16
2022-11-13T11:41:44.797Z,16
2022-11-13T11:42:45.473Z,16
2022-11-13T11:43:46.045Z,16
2022-11-13T11:44:46.639Z,12
2022-11-13T11:45:47.235Z,12
2022-11-13T11:46:47.833Z,16
2022-11-13T11:47:48.433Z,16
2022-11-13T11:48:49.027Z,16
2022-11-13T11:49:49.623Z,16
2022-11-13T11:50:50.219Z,16
2022-11-13T11:51:50.815Z,16
2022-11-13T11:52:51.412Z,16
2022-11-13T11:53:52.007Z,16
2022-11-13T11:54:52.606Z,16
2022-11-13T11:55:53.253Z,16
2022-11-13T11:56:53.851Z,16
2022-11-13T11:57:54.533Z,20
2022-11-13T11:58:55.100Z,16
2022-11-13T11:59:55.698Z,16
2022-11-13T12:00:56.343Z,16
2022-11-13T12:01:56.939Z,16
2022-11-13T12:02:57.536Z,16
2022-11-13T12:03:58.137Z,16
2022-11-13T12:04:58.829Z,16
2022-11-13T12:05:59.437Z,16
2022-11-13T12:07:00.103Z,16
2022-11-13T12:08:00.745Z,16
2022-11-13T12:09:01.341Z,16
2022-11-13T12:10:02.808Z,16
2022-11-13T12:11:03.468Z,16
2022-11-13T12:12:04.038Z,16
2022-11-13T12:13:04.717Z,16
2022-11-13T12:14:05.290Z,16
2022-11-13T12:15:05.886Z,16
2022-11-13T12:16:06.483Z,16
2022-11-13T12:17:16.458Z,16
2022-11-13T12:18:08.671Z,16
2022-11-13T12:19:09.269Z,16
2022-11-13T12:20:09.868Z,16
2022-11-13T12:21:10.515Z,16
2022-11-13T12:22:11.112Z,16
2022-11-13T12:23:11.707Z,12
2022-11-13T12:24:13.102Z,16
2022-11-13T12:25:13.698Z,16
2022-11-13T12:26:14.358Z,12
2022-11-13T12:27:14.953Z,16
2022-11-13T12:28:15.634Z,16
2022-11-13T12:29:16.205Z,20
2022-11-13T12:31:18.325Z,16
2022-11-13T12:32:18.971Z,16
2022-11-13T12:33:19.618Z,20
2022-11-13T12:34:20.216Z,16
2022-11-13T12:35:20.813Z,20
2022-11-13T12:36:22.263Z,16
2022-11-13T12:37:22.857Z,16
2022-11-13T12:38:23.452Z,16
2022-11-13T12:39:24.048Z,16
2022-11-13T12:40:24.643Z,16
2022-11-13T12:41:25.241Z,16
2022-11-13T12:42:25.837Z,16
2022-11-13T12:43:26.517Z,16
2022-11-13T12:44:27.238Z,20
2022-11-13T12:45:27.831Z,16
2022-11-13T12:46:28.428Z,16
2022-11-13T12:47:29.873Z,20
2022-11-13T12:48:30.715Z,20
2022-11-13T12:49:31.482Z,12
2022-11-13T12:50:33.033Z,12
2022-11-13T12:51:33.666Z,16
2022-11-13T12:52:34.262Z,16
2022-11-13T12:53:34.858Z,16
2022-11-13T12:54:35.454Z,24
2022-11-13T12:55:36.050Z,20
2022-11-13T12:56:36.651Z,16
2022-11-13T12:57:37.274Z,24
2022-11-13T12:58:37.959Z,20
2022-11-13T12:59:38.526Z,16
2022-11-13T13:00:39.123Z,16
2022-11-13T13:01:39.744Z,16
2022-11-13T13:02:40.330Z,16
2022-11-13T13:03:40.922Z,12
2022-11-13T13:04:41.524Z,12
2022-11-13T13:05:42.116Z,16
2022-11-13T13:06:42.762Z,12
2022-11-13T13:07:43.356Z,16
2022-11-13T13:08:43.953Z,12
2022-11-13T13:09:44.552Z,16
2022-11-13T13:10:45.144Z,16
2022-11-13T13:11:45.737Z,16
2022-11-13T13:12:46.341Z,12
2022-11-13T13:13:47.011Z,16
2022-11-13T13:14:47.581Z,12
2022-11-13T13:15:48.177Z,12
2022-11-13T13:16:48.772Z,16
2022-11-13T13:17:49.370Z,16
2022-11-13T13:18:49.968Z,16
2022-11-13T13:19:50.562Z,16
2022-11-13T13:20:51.159Z,16
2022-11-13T13:21:51.765Z,16
2022-11-13T13:22:52.361Z,28
2022-11-13T13:23:52.956Z,16
2022-11-13T13:24:53.552Z,12
2022-11-13T13:25:54.147Z,12
2022-11-13T13:26:54.745Z,12
2022-11-13T13:27:55.341Z,8
2022-11-13T13:28:56.017Z,12
2022-11-13T13:29:56.592Z,12
2022-11-13T13:30:57.188Z,8
2022-11-13T13:31:57.785Z,12
2022-11-13T13:32:58.530Z,8
2022-11-13T13:33:59.129Z,8
2022-11-13T13:34:59.723Z,8
2022-11-13T13:36:00.317Z,12
2022-11-13T13:37:00.912Z,12
2022-11-13T13:38:01.558Z,12
2022-11-13T13:39:02.208Z,12
2022-11-13T13:40:02.863Z,8
2022-11-13T13:41:03.462Z,8
2022-11-13T13:42:04.057Z,12
2022-11-13T13:43:04.655Z,12
2022-11-13T13:44:05.490Z,8
2022-11-13T13:45:06.054Z,12
2022-11-13T13:46:06.650Z,8
2022-11-13T13:47:07.245Z,16
2022-11-13T13:48:07.840Z,12
2022-11-13T13:49:08.436Z,16
2022-11-13T13:50:09.076Z,12
2022-11-13T13:51:09.705Z,12
2022-11-13T13:52:10.353Z,12
2022-11-13T13:53:10.950Z,12
2022-11-13T13:54:12.399Z,16
2022-11-13T13:55:13.007Z,16
2022-11-13T13:56:13.593Z,16
2022-11-13T13:57:14.190Z,12
2022-11-13T13:58:14.848Z,12
2022-11-13T13:59:15.534Z,12
2022-11-13T14:00:16.370Z,16
2022-11-13T14:01:19.340Z,12
2022-11-13T14:02:19.073Z,12
2022-11-13T14:03:19.707Z,16
2022-11-13T14:04:20.300Z,16
2022-11-13T14:05:20.900Z,16
2022-11-13T14:06:21.566Z,20
2022-11-13T14:07:22.325Z,20
2022-11-13T14:08:22.961Z,16
2022-11-13T14:09:23.623Z,20
2022-11-13T14:10:24.218Z,28
2022-11-13T14:11:24.812Z,40
2022-11-13T14:12:25.410Z,48
2022-11-13T14:13:26.009Z,40
2022-11-13T14:14:26.691Z,24
2022-11-13T14:15:27.259Z,28
2022-11-13T14:16:27.900Z,16
2022-11-13T14:17:28.500Z,16
2022-11-13T14:18:29.413Z,16
2022-11-13T14:19:30.130Z,16
2022-11-13T14:20:30.728Z,12
2022-11-13T14:21:31.322Z,12
2022-11-13T14:22:31.917Z,12
2022-11-13T14:23:32.514Z,8
2022-11-13T14:24:33.175Z,8
2022-11-13T14:25:33.766Z,8
2022-11-13T14:26:34.361Z,8
2022-11-13T14:27:34.956Z,8
2022-11-13T14:28:35.555Z,8
2022-11-13T14:29:36.234Z,12
2022-11-13T14:30:36.804Z,12
2022-11-13T14:31:37.401Z,12
2022-11-13T14:32:38.385Z,12
2022-11-13T14:33:39.586Z,12
2022-11-13T14:34:40.184Z,8
2022-11-13T14:35:40.790Z,12
2022-11-13T14:36:41.374Z,12
2022-11-13T14:37:41.971Z,12
2022-11-13T14:38:44.538Z,12
2022-11-13T14:39:44.305Z,12
2022-11-13T14:40:44.958Z,12
2022-11-13T14:41:45.551Z,16
2022-11-13T14:42:46.210Z,16
2022-11-13T14:43:46.805Z,16
2022-11-13T14:44:47.488Z,16
2022-11-13T14:45:48.057Z,16
2022-11-13T14:46:48.701Z,20
2022-11-13T14:47:49.325Z,16